createdAt,value
2022-12-14T00:02:03.260Z,-1.14
2022-12-14T00:04:52.016Z,-1.10
2022-12-14T00:07:40.695Z,-0.92
2022-12-14T00:10:29.338Z,-1.12
2022-12-14T00:13:17.862Z,-1.00
2022-12-14T00:16:13.045Z,-1.10
2022-12-14T00:19:02.585Z,-0.93
2022-12-14T00:21:51.348Z,-0.75
2022-12-14T00:24:39.807Z,-0.70
2022-12-14T00:27:28.531Z,-0.83
2022-12-14T00:30:19.025Z,-0.76
2022-12-14T00:33:08.824Z,-0.75
2022-12-14T00:35:57.351Z,-0.68
2022-12-14T00:38:46.110Z,-0.75
2022-12-14T00:41:34.914Z,-0.63
2022-12-14T00:44:23.369Z,-0.75
2022-12-14T00:47:11.852Z,-0.66
2022-12-14T00:50:01.607Z,-0.67
2022-12-14T00:52:50.052Z,-0.67
2022-12-14T00:55:40.077Z,-0.69
2022-12-14T00:58:28.944Z,-0.74
2022-12-14T01:01:17.798Z,-0.64
2022-12-14T01:04:19.702Z,-0.73
2022-12-14T01:07:09.632Z,-0.65
2022-12-14T01:09:58.067Z,-0.52
2022-12-14T01:12:46.515Z,-0.81
2022-12-14T01:15:35.897Z,-0.77
2022-12-14T01:18:24.383Z,-0.60
2022-12-14T01:21:14.768Z,-0.56
2022-12-14T01:24:06.346Z,-0.80
2022-12-14T01:26:54.790Z,-0.69
2022-12-14T01:29:43.281Z,-0.53
2022-12-14T01:32:32.021Z,-0.62
2022-12-14T01:35:20.551Z,-0.81
2022-12-14T01:38:09.056Z,-0.81
2022-12-14T01:40:59.883Z,-0.83
2022-12-14T01:43:49.959Z,-0.81
2022-12-14T01:46:41.471Z,-0.83
2022-12-14T01:49:33.600Z,-0.86
2022-12-14T01:52:25.237Z,-0.82
2022-12-14T01:55:16.438Z,-0.83
2022-12-14T01:58:08.386Z,-0.77
2022-12-14T02:00:58.543Z,-0.81
2022-12-14T02:03:49.168Z,-0.75
2022-12-14T02:06:39.318Z,-1.01
2022-12-14T02:09:30.716Z,-0.89
2022-12-14T02:12:21.803Z,-0.62
2022-12-14T02:15:12.883Z,-0.70
2022-12-14T02:18:03.468Z,-0.80
2022-12-14T02:21:07.032Z,-0.73
2022-12-14T02:24:35.305Z,-0.85
2022-12-14T02:27:44.006Z,-0.78
2022-12-14T02:30:36.176Z,-0.75
2022-12-14T02:33:34.390Z,-0.76
2022-12-14T02:36:29.601Z,-0.74
2022-12-14T02:39:23.502Z,-0.58
2022-12-14T02:42:14.772Z,-0.69
2022-12-14T02:45:08.622Z,-0.57
2022-12-14T02:48:02.319Z,-0.54
2022-12-14T02:50:55.595Z,-0.62
2022-12-14T02:53:47.620Z,-0.49
2022-12-14T02:56:40.821Z,-0.44
2022-12-14T02:59:29.635Z,-0.51
2022-12-14T03:02:18.327Z,-0.57
2022-12-14T03:05:09.127Z,-0.48
2022-12-14T03:07:59.191Z,-0.49
2022-12-14T03:10:51.089Z,-0.47
2022-12-14T03:13:46.161Z,-0.56
2022-12-14T03:16:41.198Z,-0.53
2022-12-14T03:19:32.018Z,-0.60
2022-12-14T03:22:26.034Z,-0.45
2022-12-14T03:25:15.975Z,-0.52
2022-12-14T03:28:08.152Z,-0.46
2022-12-14T03:31:01.049Z,-0.56
2022-12-14T03:33:51.158Z,-0.52
2022-12-14T03:36:43.855Z,-0.47
2022-12-14T03:39:35.092Z,-0.46
2022-12-14T03:42:25.642Z,-0.37
2022-12-14T03:45:18.967Z,-0.25
2022-12-14T03:48:13.614Z,-0.44
2022-12-14T03:51:09.844Z,-0.34
2022-12-14T03:54:04.797Z,-0.17
2022-12-14T03:56:57.928Z,-0.24
2022-12-14T03:59:49.797Z,-0.27
2022-12-14T04:02:43.654Z,-0.29
2022-12-14T04:05:35.553Z,-0.15
2022-12-14T04:08:29.907Z,-0.18
2022-12-14T04:11:37.308Z,-0.19
2022-12-14T04:14:48.531Z,-0.31
2022-12-14T04:17:55.740Z,-0.19
2022-12-14T04:20:47.457Z,-0.45
2022-12-14T04:23:58.818Z,-0.24
2022-12-14T04:26:52.690Z,-0.25
2022-12-14T04:30:00.807Z,-0.26
2022-12-14T04:32:51.524Z,-0.32
2022-12-14T04:35:41.852Z,-0.31
2022-12-14T04:38:34.312Z,-1.24
2022-12-14T04:41:25.398Z,-0.27
2022-12-14T04:44:16.961Z,-0.21
2022-12-14T04:47:09.309Z,-0.19
2022-12-14T04:50:01.579Z,-0.18
2022-12-14T04:52:53.486Z,-2.04
2022-12-14T04:55:47.367Z,-0.14
2022-12-14T04:58:37.809Z,-0.13
2022-12-14T05:01:36.405Z,-0.13
2022-12-14T05:04:35.360Z,-0.15
2022-12-14T05:07:34.551Z,-0.17
2022-12-14T05:10:28.833Z,-0.12
2022-12-14T05:13:22.512Z,-0.08
2022-12-14T05:16:11.396Z,0.05
2022-12-14T05:18:59.888Z,0.03
2022-12-14T05:21:49.701Z,-0.01
2022-12-14T05:24:38.165Z,0.00
2022-12-14T05:27:26.607Z,-0.01
2022-12-14T05:30:15.178Z,-0.06
2022-12-14T05:33:03.701Z,0.05
2022-12-14T05:35:52.129Z,0.00
2022-12-14T05:38:42.124Z,-0.01
2022-12-14T05:41:30.566Z,-0.06
2022-12-14T05:44:19.036Z,-0.08
2022-12-14T05:47:07.631Z,-0.14
2022-12-14T05:49:56.133Z,-0.22
2022-12-14T05:52:45.108Z,-0.20
2022-12-14T05:55:34.992Z,-0.25
2022-12-14T05:58:23.460Z,-0.24
2022-12-14T06:01:18.837Z,-0.24
2022-12-14T06:04:07.975Z,-0.38
2022-12-14T06:06:56.606Z,-0.40
2022-12-14T06:09:45.042Z,-0.23
2022-12-14T06:12:34.899Z,-0.11
2022-12-14T06:15:27.186Z,-0.11
2022-12-14T06:18:18.885Z,-0.25
2022-12-14T06:21:07.371Z,-0.20
2022-12-14T06:23:56.685Z,-0.31
2022-12-14T06:26:45.311Z,-0.33
2022-12-14T06:29:35.138Z,-0.39
2022-12-14T06:32:23.953Z,-0.51
2022-12-14T06:35:12.458Z,-0.44
2022-12-14T06:38:00.920Z,-1.19
2022-12-14T06:40:49.397Z,-0.21
2022-12-14T06:43:37.939Z,-0.38
2022-12-14T06:46:27.804Z,-0.35
2022-12-14T06:49:17.111Z,-0.49
2022-12-14T06:52:05.923Z,-0.79
2022-12-14T06:54:54.378Z,-0.55
2022-12-14T06:57:42.882Z,-0.48
2022-12-14T07:00:31.353Z,-0.52
2022-12-14T07:03:21.172Z,-0.53
2022-12-14T07:06:10.461Z,-0.59
2022-12-14T07:09:00.252Z,-0.67
2022-12-14T07:11:50.870Z,-0.76
2022-12-14T07:14:39.401Z,-0.68
2022-12-14T07:17:27.924Z,-0.88
2022-12-14T07:20:18.001Z,-0.66
2022-12-14T07:23:06.575Z,-0.60
2022-12-14T07:25:55.059Z,-0.55
2022-12-14T07:28:45.511Z,-0.37
2022-12-14T07:31:34.116Z,-0.41
2022-12-14T07:34:22.614Z,-0.27
2022-12-14T07:37:15.027Z,-0.55
2022-12-14T07:40:04.430Z,-0.23
2022-12-14T07:42:52.912Z,-0.29
2022-12-14T07:45:41.324Z,-0.42
2022-12-14T07:48:30.137Z,-0.39
2022-12-14T07:51:20.653Z,-0.62
2022-12-14T07:54:12.458Z,-0.44
2022-12-14T07:57:00.936Z,-0.28
2022-12-14T07:59:52.951Z,-0.34
2022-12-14T08:02:45.798Z,-0.45
2022-12-14T08:05:34.518Z,-0.42
2022-12-14T08:08:22.970Z,-0.38
2022-12-14T08:11:13.148Z,-0.39
2022-12-14T08:14:03.234Z,-0.41
2022-12-14T08:16:51.780Z,-0.45
2022-12-14T08:19:40.302Z,-0.22
2022-12-14T08:22:28.883Z,-0.22
2022-12-14T08:25:17.527Z,-0.10
2022-12-14T08:28:07.703Z,-0.17
2022-12-14T08:30:56.613Z,-0.01
2022-12-14T08:33:46.039Z,-0.02
2022-12-14T08:36:35.609Z,-0.13
2022-12-14T08:39:24.392Z,-0.18
2022-12-14T08:42:12.862Z,-0.21
2022-12-14T08:45:02.812Z,-0.47
2022-12-14T08:47:51.278Z,-0.51
2022-12-14T08:50:39.828Z,-0.65
2022-12-14T08:53:28.737Z,-0.55
2022-12-14T08:56:20.034Z,-0.37
2022-12-14T08:59:08.550Z,-0.40
2022-12-14T09:01:58.523Z,-0.39
2022-12-14T09:04:47.150Z,-0.29
2022-12-14T09:07:35.591Z,-0.52
2022-12-14T09:10:24.116Z,-0.55
2022-12-14T09:13:13.178Z,-0.43
2022-12-14T09:16:03.787Z,-2.03
2022-12-14T09:18:53.633Z,-0.38
2022-12-14T09:21:42.297Z,-0.36
2022-12-14T09:24:30.921Z,-0.42
2022-12-14T09:27:19.411Z,-0.36
2022-12-14T09:30:08.727Z,-0.19
2022-12-14T09:32:57.196Z,-0.18
2022-12-14T09:35:47.028Z,-1.00
2022-12-14T09:38:36.962Z,-0.27
2022-12-14T09:41:34.292Z,-0.19
2022-12-14T09:44:30.119Z,-0.09
2022-12-14T09:47:20.784Z,-0.40
2022-12-14T09:50:14.333Z,-0.24
2022-12-14T09:53:07.465Z,-0.24
2022-12-14T09:55:57.655Z,-0.20
2022-12-14T09:58:53.734Z,-0.24
2022-12-14T10:02:29.310Z,-0.25
2022-12-14T10:05:29.583Z,-0.39
2022-12-14T10:08:22.677Z,-0.60
2022-12-14T10:11:14.761Z,-0.17
2022-12-14T10:14:10.996Z,-0.21
2022-12-14T10:17:05.860Z,-0.12
2022-12-14T10:19:55.762Z,-0.05
2022-12-14T10:22:47.365Z,0.03
2022-12-14T10:25:40.022Z,0.03
2022-12-14T10:28:38.447Z,0.01
2022-12-14T10:31:31.695Z,0.01
2022-12-14T10:34:22.746Z,0.00
2022-12-14T10:37:24.766Z,-0.03
2022-12-14T10:40:31.169Z,-0.05
2022-12-14T10:43:35.996Z,0.00
2022-12-14T10:46:28.895Z,0.14
2022-12-14T10:49:20.553Z,0.13
2022-12-14T10:52:12.348Z,0.15
2022-12-14T10:55:03.831Z,0.00
2022-12-14T10:57:52.269Z,0.20
2022-12-14T11:00:42.170Z,0.28
2022-12-14T11:03:30.940Z,0.34
2022-12-14T11:06:20.479Z,0.33
2022-12-14T11:09:20.886Z,0.26
2022-12-14T11:12:18.274Z,0.25
2022-12-14T11:15:07.659Z,0.30
2022-12-14T11:18:04.998Z,0.21
2022-12-14T11:20:56.306Z,0.40
2022-12-14T11:23:45.985Z,0.48
2022-12-14T11:26:36.893Z,0.28
2022-12-14T11:29:30.832Z,0.50
2022-12-14T11:32:21.844Z,0.41
2022-12-14T11:35:16.693Z,0.32
2022-12-14T11:38:05.672Z,0.44
2022-12-14T11:40:54.160Z,0.31
2022-12-14T11:43:42.660Z,0.34
2022-12-14T11:46:45.881Z,0.34
2022-12-14T11:49:35.795Z,-0.25
2022-12-14T11:52:27.619Z,0.32
2022-12-14T11:55:24.613Z,0.32
2022-12-14T11:58:18.243Z,0.20
2022-12-14T12:01:07.933Z,0.15
2022-12-14T12:03:58.325Z,-0.06
2022-12-14T12:06:47.049Z,0.07
2022-12-14T12:09:37.122Z,0.11
2022-12-14T12:12:25.623Z,0.19
2022-12-14T12:15:18.305Z,0.21
2022-12-14T12:18:14.316Z,0.11
2022-12-14T12:21:06.924Z,0.04
2022-12-14T12:23:59.248Z,-0.09
2022-12-14T12:26:51.681Z,-0.12
2022-12-14T12:29:42.792Z,-0.37
2022-12-14T12:32:34.930Z,-0.30
2022-12-14T12:35:37.270Z,-0.42
2022-12-14T12:38:39.270Z,-0.33
2022-12-14T12:41:33.220Z,-0.33
2022-12-14T12:44:33.311Z,-0.65
2022-12-14T12:47:38.457Z,-0.33
2022-12-14T12:50:36.787Z,-0.25
2022-12-14T12:53:30.222Z,-0.27
2022-12-14T12:56:22.310Z,-0.25
2022-12-14T12:59:15.704Z,-0.23
2022-12-14T13:02:17.506Z,-0.17
2022-12-14T13:05:44.435Z,-0.23
2022-12-14T13:08:24.573Z,-0.31
2022-12-14T13:11:26.030Z,-0.21
2022-12-14T13:14:20.948Z,-0.83
2022-12-14T13:17:19.197Z,-0.31
2022-12-14T13:20:17.432Z,-0.27
2022-12-14T13:23:44.342Z,-0.19
2022-12-14T13:27:15.318Z,-0.22
2022-12-14T13:30:19.065Z,-0.19
2022-12-14T13:33:34.972Z,-0.34
2022-12-14T13:37:04.047Z,-0.23
2022-12-14T13:40:14.003Z,-0.39
2022-12-14T13:43:21.151Z,-0.35
2022-12-14T13:46:14.949Z,-0.18
2022-12-14T13:49:08.735Z,-0.30
2022-12-14T13:51:57.649Z,-0.28
2022-12-14T13:54:47.942Z,-0.29
2022-12-14T13:57:36.467Z,-0.35
2022-12-14T14:00:58.849Z,-0.28
2022-12-14T14:03:55.355Z,-0.39
2022-12-14T14:06:46.062Z,-0.28
2022-12-14T14:09:59.799Z,-0.24
2022-12-14T14:12:48.312Z,-0.30
2022-12-14T14:16:26.371Z,-0.32
2022-12-14T14:19:04.652Z,-0.43
2022-12-14T14:22:24.903Z,-0.36
2022-12-14T14:25:40.899Z,-0.33
2022-12-14T14:28:30.882Z,-0.56
2022-12-14T14:31:19.910Z,-0.29
2022-12-14T14:34:21.820Z,-0.31
2022-12-14T14:37:31.868Z,-0.43
2022-12-14T14:40:44.172Z,-0.36
2022-12-14T14:43:37.425Z,-1.32
2022-12-14T14:46:34.524Z,-0.37
2022-12-14T14:49:25.838Z,-0.40
2022-12-14T14:52:47.513Z,-0.38
2022-12-14T14:55:59.291Z,-0.38
2022-12-14T14:58:48.094Z,-0.38
2022-12-14T15:01:36.787Z,-0.38
2022-12-14T15:04:31.918Z,-0.41
2022-12-14T15:07:23.082Z,-0.77
2022-12-14T15:10:23.811Z,-0.33
2022-12-14T15:13:19.715Z,-0.33
2022-12-14T15:16:22.259Z,-0.53
2022-12-14T15:19:24.752Z,-0.56
2022-12-14T15:22:16.121Z,-0.41
2022-12-14T15:25:05.632Z,-0.37
2022-12-14T15:27:57.471Z,-0.36
2022-12-14T15:30:47.847Z,-0.31
2022-12-14T15:33:38.054Z,-0.25
2022-12-14T15:36:29.890Z,-0.30
2022-12-14T15:39:40.212Z,-0.33
2022-12-14T15:42:28.924Z,-0.33
2022-12-14T15:45:21.390Z,-0.51
2022-12-14T15:48:14.412Z,-0.53
2022-12-14T15:51:04.054Z,-0.60
2022-12-14T15:53:54.478Z,-0.54
2022-12-14T15:56:45.271Z,-0.53
2022-12-14T15:59:35.976Z,-0.52
2022-12-14T16:02:29.067Z,-0.49
2022-12-14T16:05:20.361Z,-0.62
2022-12-14T16:08:10.335Z,-0.46
2022-12-14T16:11:00.738Z,-0.49
2022-12-14T16:13:49.919Z,-0.43
2022-12-14T16:16:38.831Z,-0.49
2022-12-14T16:19:44.966Z,-0.51
2022-12-14T16:22:41.482Z,-0.51
2022-12-14T16:25:30.849Z,-0.59
2022-12-14T16:28:22.143Z,-0.46
2022-12-14T16:31:19.870Z,-0.53
2022-12-14T16:34:10.638Z,-0.55
2022-12-14T16:37:30.918Z,-0.62
2022-12-14T16:40:22.693Z,-0.58
2022-12-14T16:43:30.759Z,-0.67
2022-12-14T16:46:19.614Z,-0.85
2022-12-14T16:49:23.319Z,-0.86
2022-12-14T16:52:19.855Z,-0.80
2022-12-14T16:55:14.208Z,-0.74
2022-12-14T16:58:02.795Z,-0.76
2022-12-14T17:00:58.643Z,-0.78
2022-12-14T17:04:01.528Z,-0.86
2022-12-14T17:06:52.005Z,-0.75
2022-12-14T17:09:41.923Z,-0.75
2022-12-14T17:12:30.480Z,-1.15
2022-12-14T17:15:21.424Z,-0.72
2022-12-14T17:18:11.008Z,-0.70
2022-12-14T17:21:00.236Z,-0.74
2022-12-14T17:23:48.967Z,-0.68
2022-12-14T17:26:39.083Z,-0.70
2022-12-14T17:29:28.906Z,-0.64
2022-12-14T17:32:18.129Z,-0.64
2022-12-14T17:35:10.397Z,-0.65
2022-12-14T17:37:59.608Z,-0.64
2022-12-14T17:40:49.533Z,-0.71
2022-12-14T17:43:45.918Z,-0.68
2022-12-14T17:46:39.861Z,-0.67
2022-12-14T17:49:34.860Z,-0.69
2022-12-14T17:52:27.391Z,-0.67
2022-12-14T17:55:18.448Z,-0.71
2022-12-14T17:58:07.036Z,-0.71
2022-12-14T18:01:03.277Z,-0.68
2022-12-14T18:03:52.364Z,-0.78
2022-12-14T18:06:41.055Z,-0.73
2022-12-14T18:09:29.599Z,-0.67
2022-12-14T18:12:25.444Z,-0.87
2022-12-14T18:15:19.867Z,-0.77
2022-12-14T18:18:10.146Z,-0.74
2022-12-14T18:21:01.551Z,-0.78
2022-12-14T18:23:50.406Z,-0.76
2022-12-14T18:26:39.009Z,-0.74
2022-12-14T18:29:27.533Z,-0.72
2022-12-14T18:32:16.151Z,-0.91
2022-12-14T18:35:06.867Z,-0.79
2022-12-14T18:37:55.591Z,-0.85
2022-12-14T18:40:49.406Z,-0.76
2022-12-14T18:43:43.448Z,-0.90
2022-12-14T18:46:32.514Z,-0.87
2022-12-14T18:49:21.019Z,-0.79
2022-12-14T18:52:11.212Z,-0.80
2022-12-14T18:55:03.960Z,-0.99
2022-12-14T18:57:55.732Z,-0.84
2022-12-14T19:00:44.907Z,-0.78
2022-12-14T19:03:33.957Z,-0.75
2022-12-14T19:09:34.953Z,-0.80
2022-12-14T19:12:23.937Z,-0.89
2022-12-14T19:15:15.663Z,-0.72
2022-12-14T19:18:04.362Z,-0.82
2022-12-14T19:20:52.856Z,-0.68
2022-12-14T19:23:41.324Z,-0.70
2022-12-14T19:26:32.712Z,-0.71
2022-12-14T19:29:21.280Z,-0.63
2022-12-14T19:32:10.013Z,-0.65
2022-12-14T19:34:58.585Z,-0.76
2022-12-14T19:37:47.363Z,-0.84
2022-12-14T19:40:35.848Z,-0.93
2022-12-14T19:43:25.679Z,-0.83
2022-12-14T19:46:15.469Z,-1.00
2022-12-14T19:49:04.039Z,-0.82
2022-12-14T19:51:53.360Z,-1.16
2022-12-14T19:54:41.951Z,-0.82
2022-12-14T19:57:30.428Z,-0.85
2022-12-14T20:00:20.524Z,-0.80
2022-12-14T20:03:09.141Z,-0.79
2022-12-14T20:06:00.095Z,-0.79
2022-12-14T20:08:49.309Z,-0.80
2022-12-14T20:11:38.272Z,-0.73
2022-12-14T20:14:27.149Z,-0.67
2022-12-14T20:17:17.202Z,-0.67
2022-12-14T20:20:06.658Z,-0.67
2022-12-14T20:22:55.209Z,-0.76
2022-12-14T20:25:43.879Z,-0.83
2022-12-14T20:28:33.059Z,-0.75
2022-12-14T20:31:22.369Z,-0.76
2022-12-14T20:34:12.375Z,-0.73
2022-12-14T20:37:00.965Z,-0.70
2022-12-14T20:39:49.539Z,-0.82
2022-12-14T20:42:38.179Z,-0.72
2022-12-14T20:45:26.931Z,-0.73
2022-12-14T20:48:15.535Z,-0.97
2022-12-14T20:51:05.620Z,-0.66
2022-12-14T20:53:54.193Z,-0.64
2022-12-14T20:56:42.897Z,-0.88
2022-12-14T20:59:31.555Z,-0.82
2022-12-14T21:02:21.742Z,-0.73
2022-12-14T21:05:10.749Z,-0.75
2022-12-14T21:08:00.695Z,-0.80
2022-12-14T21:10:49.243Z,-0.74
2022-12-14T21:13:37.807Z,-0.69
2022-12-14T21:16:26.346Z,-0.62
2022-12-14T21:19:17.704Z,-0.65
2022-12-14T21:22:07.107Z,-0.65
2022-12-14T21:25:06.187Z,-0.64
2022-12-14T21:27:55.448Z,-0.68
2022-12-14T21:30:44.318Z,-0.83
2022-12-14T21:33:35.563Z,-0.73
2022-12-14T21:36:24.133Z,-0.93
2022-12-14T21:39:13.609Z,-0.84
2022-12-14T21:42:15.346Z,-0.69
2022-12-14T21:45:04.863Z,-0.68
2022-12-14T21:47:53.372Z,-0.58
2022-12-14T21:50:43.651Z,-0.28
2022-12-14T21:53:35.452Z,0.14
2022-12-14T21:56:41.890Z,0.00
2022-12-14T21:59:33.751Z,0.15
2022-12-14T22:02:24.105Z,-0.11
2022-12-14T22:05:13.123Z,-0.35
2022-12-14T22:08:01.665Z,-0.50
2022-12-14T22:10:50.202Z,-0.62
2022-12-14T22:13:38.928Z,-0.62
2022-12-14T22:16:29.760Z,-0.85
2022-12-14T22:19:19.603Z,-0.72
2022-12-14T22:22:08.489Z,-0.67
2022-12-14T22:24:57.107Z,-0.62
2022-12-14T22:27:49.936Z,-0.60
2022-12-14T22:30:38.775Z,-0.74
2022-12-14T22:33:30.467Z,-0.81
2022-12-14T22:36:19.608Z,-0.74
2022-12-14T22:39:08.139Z,-0.78
2022-12-14T22:41:56.630Z,-0.92
2022-12-14T22:44:45.154Z,-0.97
2022-12-14T22:47:34.607Z,-0.94
2022-12-14T22:50:24.446Z,-1.02
2022-12-14T22:53:14.052Z,-1.04
2022-12-14T22:56:06.155Z,-1.04
2022-12-14T22:58:58.536Z,-1.15
2022-12-14T23:01:50.153Z,-1.16
2022-12-14T23:04:39.192Z,-1.15
2022-12-14T23:07:29.082Z,-1.19
2022-12-14T23:10:35.041Z,-1.27
2022-12-14T23:13:41.109Z,-1.16
2022-12-14T23:16:50.108Z,-1.17
2022-12-14T23:19:58.716Z,-1.16
2022-12-14T23:23:10.024Z,-1.06
2022-12-14T23:26:19.820Z,-1.05
2022-12-14T23:29:25.902Z,-1.03
2022-12-14T23:32:31.840Z,-1.00
2022-12-14T23:35:38.102Z,-1.05
2022-12-14T23:38:45.668Z,-1.03
2022-12-14T23:41:51.646Z,-1.02
2022-12-14T23:44:57.626Z,-1.15
2022-12-14T23:48:03.476Z,-1.24
2022-12-14T23:51:09.363Z,-1.15
2022-12-14T23:54:16.628Z,-1.05
2022-12-14T23:57:25.848Z,-1.06
